Time;durP1;ratioP1;P1;durP2;ratioP2;P2;SDS_P1;SDS_P2;PMS_P1;PMS_P2;Temp;Humidity;BMP_temperature;BMP_pressure;BME280_temperature;BME280_humidity;BME280_pressure;Samples;Min_cycle;Max_cycle;Signal;HPM_P1;HPM_P2
2023/11/09 00:02:02;;;;;;;;;;;;;;;15.95;45.53;100829.00;5095731;28;1113;-46
2023/11/09 00:04:28;;;;;;;;;;;;;;;15.78;44.91;100832.84;5096338;28;1117;-45
2023/11/09 00:06:53;;;;;;;;;;;;;;;15.72;44.21;100826.13;5095858;28;1206;-43
2023/11/09 00:09:20;;;;;;;;;;;;;;;15.72;43.79;100843.84;5096223;28;1134;-43
2023/11/09 00:11:46;;;;;;;;;;;;;;;15.58;43.68;100840.31;5099713;28;1117;-45
2023/11/09 00:14:16;;;;;;;;;;;;;;;15.41;43.20;100857.38;5086216;28;1979;-44
2023/11/09 00:16:42;;;;;;;;;;;;;;;15.47;43.25;100867.56;5099899;28;1102;-43
2023/11/09 00:19:07;;;;;;;;;;;;;;;15.35;43.12;100858.59;5091983;28;1087;-43
2023/11/09 00:21:33;;;;;;;;;;;;;;;16.65;45.95;100858.69;5100445;28;990;-44
2023/11/09 00:23:58;;;;;;;;;;;;;;;16.07;46.12;100853.88;5086570;28;1913;-46
2023/11/09 00:26:24;;;;;;;;;;;;;;;15.82;45.18;100860.81;5099470;28;1081;-45
2023/11/09 00:28:50;;;;;;;;;;;;;;;15.65;44.47;100857.53;5115217;28;1201;-43
2023/11/09 00:31:16;;;;;;;;;;;;;;;15.61;43.81;100853.38;5096923;28;1077;-46
2023/11/09 00:33:43;;;;;;;;;;;;;;;15.54;43.29;100860.91;5092326;28;2012;-43
2023/11/09 00:36:09;;;;;;;;;;;;;;;16.49;45.69;100874.88;5070660;28;1055;-43
2023/11/09 00:38:34;;;;;;;;;;;;;;;16.38;46.24;100877.44;5086202;28;1237;-43
2023/11/09 00:41:00;;;;;;;;;;;;;;;15.91;45.41;100872.63;5099792;28;1043;-49
2023/11/09 00:43:26;;;;;;;;;;;;;;;15.87;44.68;100868.47;5091616;28;1049;-42
2023/11/09 00:45:51;;;;;;;;;;;;;;;15.67;43.97;100860.94;5099173;28;1042;-47
2023/11/09 00:48:17;;;;;;;;;;;;;;;16.63;45.50;100865.91;5086037;28;1130;-44
2023/11/09 00:50:43;;;;;;;;;;;;;;;16.08;45.77;100866.16;5072067;28;1125;-47
2023/11/09 00:53:09;;;;;;;;;;;;;;;15.83;45.03;100867.81;5095124;28;1136;-45
2023/11/09 00:55:35;;;;;;;;;;;;;;;15.70;44.24;100867.81;5091772;28;2669;-44
2023/11/09 00:58:01;;;;;;;;;;;;;;;15.88;45.11;100876.31;5112496;28;1208;-45
2023/11/09 01:00:27;;;;;;;;;;;;;;;16.39;45.78;100889.75;5079150;28;1011;-49
2023/11/09 01:02:54;;;;;;;;;;;;;;;15.99;45.33;100903.97;5094891;28;1019;-48
2023/11/09 01:05:19;;;;;;;;;;;;;;;15.92;44.67;100903.50;5099304;28;944;-45
2023/11/09 01:07:46;;;;;;;;;;;;;;;15.73;44.34;100911.84;5093629;28;1034;-43
2023/11/09 01:10:12;;;;;;;;;;;;;;;15.71;43.70;100911.09;5093193;28;1114;-46
2023/11/09 01:12:37;;;;;;;;;;;;;;;15.54;43.33;100903.34;5098571;28;1058;-46
2023/11/09 01:15:03;;;;;;;;;;;;;;;15.50;43.01;100898.31;5099195;28;1913;-46
2023/11/09 01:17:29;;;;;;;;;;;;;;;15.67;44.13;100902.50;5099000;28;1137;-45
2023/11/09 01:19:55;;;;;;;;;;;;;;;16.01;45.02;100894.97;5098730;28;928;-45
2023/11/09 01:22:20;;;;;;;;;;;;;;;15.71;44.74;100900.50;5098488;28;1006;-45
2023/11/09 01:24:47;;;;;;;;;;;;;;;15.56;44.53;100908.53;5100512;28;2498;-45
2023/11/09 01:27:13;;;;;;;;;;;;;;;15.55;43.51;100914.75;5098650;28;1049;-48
2023/11/09 01:29:39;;;;;;;;;;;;;;;15.40;43.69;100922.78;5098958;28;1174;-45
2023/11/09 01:32:05;;;;;;;;;;;;;;;15.41;43.14;100931.59;5098496;28;1038;-46
2023/11/09 01:34:30;;;;;;;;;;;;;;;16.63;45.14;100958.03;5098483;28;1910;-48
2023/11/09 01:36:57;;;;;;;;;;;;;;;15.95;45.25;100966.13;5098845;28;1154;-43
2023/11/09 01:39:23;;;;;;;;;;;;;;;15.78;44.89;100960.97;5098736;28;1097;-47
2023/11/09 01:41:48;;;;;;;;;;;;;;;15.69;44.13;100963.38;5098063;28;1101;-43
2023/11/09 01:44:14;;;;;;;;;;;;;;;15.42;44.17;100957.16;5098048;28;899;-46
2023/11/09 01:46:40;;;;;;;;;;;;;;;15.51;43.14;100953.91;5098736;28;1127;-46
2023/11/09 01:49:05;;;;;;;;;;;;;;;16.37;45.14;100950.06;5096791;28;1540;-41
2023/11/09 01:51:31;;;;;;;;;;;;;;;15.81;45.34;100952.00;5098519;28;1137;-43
2023/11/09 01:53:57;;;;;;;;;;;;;;;15.66;44.40;100959.97;5130836;27;1910;-44
2023/11/09 01:56:23;;;;;;;;;;;;;;;16.25;45.58;100949.09;5130483;27;1022;-43
2023/11/09 01:58:49;;;;;;;;;;;;;;;15.96;45.41;100943.94;5096518;28;1062;-44
2023/11/09 02:01:15;;;;;;;;;;;;;;;15.80;44.74;100955.56;5096555;28;1396;-44
2023/11/09 02:03:40;;;;;;;;;;;;;;;15.62;44.54;100947.03;5113975;28;1262;-46
2023/11/09 02:06:09;;;;;;;;;;;;;;;15.60;43.80;100948.97;5096617;28;1050;-47
2023/11/09 02:08:34;;;;;;;;;;;;;;;16.45;45.22;100961.00;5097643;28;837;-44
2023/11/09 02:11:00;;;;;;;;;;;;;;;16.43;45.99;100965.59;5096880;28;1116;-43
2023/11/09 02:13:26;;;;;;;;;;;;;;;16.01;45.48;100965.75;5096748;28;1100;-45
2023/11/09 02:15:52;;;;;;;;;;;;;;;15.85;45.02;100966.72;5096594;28;1980;-46
2023/11/09 02:18:18;;;;;;;;;;;;;;;15.66;44.34;100961.81;5080103;28;1108;-45
2023/11/09 02:20:44;;;;;;;;;;;;;;;15.61;43.53;100954.16;5095884;28;1140;-44
2023/11/09 02:23:09;;;;;;;;;;;;;;;15.57;43.76;100951.78;5096748;28;1043;-47
2023/11/09 02:25:35;;;;;;;;;;;;;;;15.83;44.66;100957.19;5077406;28;2511;-42
2023/11/09 02:28:02;;;;;;;;;;;;;;;16.02;45.03;100938.25;5097577;28;1078;-43
2023/11/09 02:30:27;;;;;;;;;;;;;;;15.73;44.58;100939.22;5096322;28;1114;-45
2023/11/09 02:32:53;;;;;;;;;;;;;;;15.53;43.94;100951.16;5102052;28;1321;-45
2023/11/09 02:35:19;;;;;;;;;;;;;;;16.53;45.55;100960.50;5129980;27;1983;-45
2023/11/09 02:37:44;;;;;;;;;;;;;;;16.14;45.52;100963.13;5079390;28;1098;-43
2023/11/09 02:40:10;;;;;;;;;;;;;;;15.72;45.52;100960.53;5095922;28;1122;-46
2023/11/09 02:42:35;;;;;;;;;;;;;;;15.70;44.33;100947.38;5097398;28;1134;-44
2023/11/09 02:45:01;;;;;;;;;;;;;;;15.56;43.98;100956.25;5097231;28;835;-46
2023/11/09 02:47:26;;;;;;;;;;;;;;;15.54;43.69;100959.00;5097504;28;1294;-46
2023/11/09 02:49:52;;;;;;;;;;;;;;;15.46;43.21;100963.97;5096105;28;1251;-46
2023/11/09 02:52:17;;;;;;;;;;;;;;;16.65;45.71;100972.91;5097514;28;1087;-46
2023/11/09 02:54:43;;;;;;;;;;;;;;;16.06;45.73;100978.69;5095464;28;1913;-43
2023/11/09 02:57:08;;;;;;;;;;;;;;;15.85;45.35;100980.00;5095817;28;1256;-44
2023/11/09 02:59:34;;;;;;;;;;;;;;;15.65;44.90;100983.94;5096919;28;1179;-45
2023/11/09 03:02:01;;;;;;;;;;;;;;;16.65;45.80;100985.31;5095180;28;1015;-44
2023/11/09 03:04:26;;;;;;;;;;;;;;;16.02;45.71;100980.72;5096678;28;1026;-46
2023/11/09 03:06:53;;;;;;;;;;;;;;;15.88;44.90;100973.66;5096951;28;1090;-43
2023/11/09 03:09:19;;;;;;;;;;;;;;;15.78;44.30;100981.38;5095197;28;876;-44
2023/11/09 03:11:45;;;;;;;;;;;;;;;15.58;43.87;100991.47;5095401;28;1210;-49
2023/11/09 03:14:10;;;;;;;;;;;;;;;15.55;43.42;100983.72;5096687;28;1977;-44
2023/11/09 03:16:36;;;;;;;;;;;;;;;16.57;45.00;100996.50;5095625;28;1088;-46
2023/11/09 03:19:02;;;;;;;;;;;;;;;15.96;45.42;101000.53;5096638;28;979;-43
2023/11/09 03:21:28;;;;;;;;;;;;;;;15.77;44.65;100999.06;5096148;28;1188;-47
2023/11/09 03:23:54;;;;;;;;;;;;;;;16.73;45.95;101009.53;5096195;28;2239;-47
2023/11/09 03:26:19;;;;;;;;;;;;;;;16.22;46.05;101013.88;5096583;28;1034;-44
2023/11/09 03:28:45;;;;;;;;;;;;;;;15.87;45.26;101019.69;5096247;28;1026;-46
2023/11/09 03:31:11;;;;;;;;;;;;;;;15.82;44.37;101020.00;5095997;28;1122;-46
2023/11/09 03:33:36;;;;;;;;;;;;;;;15.69;44.22;101025.25;5095717;28;1973;-44
2023/11/09 03:36:02;;;;;;;;;;;;;;;15.64;43.97;101027.34;5096518;28;1149;-45
2023/11/09 03:38:27;;;;;;;;;;;;;;;15.59;43.39;101029.44;5095792;28;1160;-45
2023/11/09 03:40:54;;;;;;;;;;;;;;;15.50;42.86;101029.09;5094976;28;1328;-44
2023/11/09 03:43:19;;;;;;;;;;;;;;;15.45;42.98;101020.56;5095960;28;1122;-46
2023/11/09 03:45:45;;;;;;;;;;;;;;;15.34;42.99;101031.00;5095290;28;890;-44
2023/11/09 03:48:11;;;;;;;;;;;;;;;15.32;42.73;101027.59;5096318;28;1069;-45
2023/11/09 03:50:36;;;;;;;;;;;;;;;15.67;43.84;101025.34;5096233;28;1006;-42
2023/11/09 03:53:02;;;;;;;;;;;;;;;16.38;44.98;101029.59;5095733;28;1006;-44
2023/11/09 03:55:27;;;;;;;;;;;;;;;15.79;45.17;101031.66;5095631;28;2698;-46
2023/11/09 03:57:53;;;;;;;;;;;;;;;15.62;44.49;101026.59;5096137;28;964;-44
2023/11/09 04:00:18;;;;;;;;;;;;;;;15.51;44.15;101036.09;5096717;28;1047;-45
2023/11/09 04:02:44;;;;;;;;;;;;;;;15.32;44.28;101038.19;5095551;28;1015;-46
2023/11/09 04:05:10;;;;;;;;;;;;;;;15.44;43.15;101042.75;5096775;28;1061;-43
2023/11/09 04:07:43;;;;;;;;;;;;;;;16.55;45.43;101053.34;5095946;28;1133;-43
2023/11/09 04:10:09;;;;;;;;;;;;;;;16.25;46.00;101061.44;5094891;28;1071;-49
2023/11/09 04:12:35;;;;;;;;;;;;;;;15.84;45.84;101055.25;5095919;28;1133;-49
2023/11/09 04:15:04;;;;;;;;;;;;;;;15.76;44.55;101055.75;5096053;28;1909;-45
2023/11/09 04:17:30;;;;;;;;;;;;;;;15.57;44.63;101060.50;5096087;28;1123;-43
2023/11/09 04:19:55;;;;;;;;;;;;;;;15.55;43.89;101057.94;5095875;28;1097;-41
2023/11/09 04:22:21;;;;;;;;;;;;;;;15.48;43.62;101062.78;5095727;28;1077;-45
2023/11/09 04:24:46;;;;;;;;;;;;;;;15.40;43.46;101065.06;5095880;28;2679;-43
2023/11/09 04:27:12;;;;;;;;;;;;;;;15.37;42.69;101065.28;5096126;28;1026;-43
2023/11/09 04:29:37;;;;;;;;;;;;;;;15.27;42.74;101071.16;5095947;28;1081;-44
2023/11/09 04:32:03;;;;;;;;;;;;;;;15.26;43.09;101080.06;5095520;28;1095;-46
2023/11/09 04:34:31;;;;;;;;;;;;;;;16.53;44.89;101090.63;5095786;28;1913;-46
2023/11/09 04:36:57;;;;;;;;;;;;;;;15.81;45.06;101086.41;5095888;28;1078;-49
2023/11/09 04:39:29;;;;;;;;;;;;;;;15.55;44.62;101089.78;5096019;28;1121;-44
2023/11/09 04:41:57;;;;;;;;;;;;;;;15.51;44.12;101090.94;5095770;28;1270;-44
2023/11/09 04:44:23;;;;;;;;;;;;;;;15.39;43.99;101098.72;5095176;28;1070;-42
2023/11/09 04:46:48;;;;;;;;;;;;;;;15.34;43.32;101099.94;5095251;28;1082;-43
2023/11/09 04:49:14;;;;;;;;;;;;;;;15.81;44.57;101104.97;5096044;28;1070;-46
2023/11/09 04:51:39;;;;;;;;;;;;;;;16.29;45.34;101107.22;5095722;28;1078;-43
2023/11/09 04:54:16;;;;;;;;;;;;;;;15.80;45.22;101106.78;5095011;28;1975;-44
2023/11/09 04:56:53;;;;;;;;;;;;;;;15.59;44.85;101115.16;5097420;28;1236;-47
2023/11/09 05:07:17;;;;;;;;;;;;;;;15.66;44.58;101134.19;5099082;28;1130;-47
2023/11/09 05:09:46;;;;;;;;;;;;;;;16.43;45.21;101135.53;5098559;28;1054;-48
2023/11/09 05:12:12;;;;;;;;;;;;;;;15.85;45.38;101136.50;5098985;28;1122;-45
2023/11/09 05:14:38;;;;;;;;;;;;;;;15.67;44.87;101134.09;5098645;28;1909;-49
2023/11/09 05:17:03;;;;;;;;;;;;;;;15.61;43.87;101147.75;5097931;28;1026;-44
2023/11/09 05:19:29;;;;;;;;;;;;;;;15.48;43.97;101147.63;5097748;28;1083;-44
2023/11/09 05:21:55;;;;;;;;;;;;;;;15.79;44.64;101151.03;5094235;28;1778;-51
2023/11/09 05:24:21;;;;;;;;;;;;;;;16.71;45.21;101154.06;5085017;28;1781;-50
2023/11/09 05:26:50;;;;;;;;;;;;;;;15.99;45.43;101156.91;5092016;28;1115;-45
2023/11/09 05:29:16;;;;;;;;;;;;;;;15.77;45.00;101162.69;5086686;28;1288;-45
2023/11/09 05:31:44;;;;;;;;;;;;;;;16.45;44.41;101165.47;5098565;28;1117;-44
2023/11/09 05:34:10;;;;;;;;;;;;;;;16.63;44.13;101162.56;5098473;28;1984;-46
2023/11/09 05:36:35;;;;;;;;;;;;;;;16.38;44.53;101173.00;5098679;28;1170;-47
2023/11/09 05:39:04;;;;;;;;;;;;;;;16.19;45.35;101173.34;5099119;28;1107;-46
2023/11/09 05:41:29;;;;;;;;;;;;;;;16.06;45.46;101191.00;5098354;28;1046;-41
2023/11/09 05:43:56;;;;;;;;;;;;;;;16.17;45.99;101199.13;5098691;28;1074;-46
2023/11/09 05:46:21;;;;;;;;;;;;;;;16.83;44.46;101206.38;5098194;28;963;-44
2023/11/09 05:48:48;;;;;;;;;;;;;;;16.38;45.68;101194.22;5096941;28;1055;-47
2023/11/09 05:51:20;;;;;;;;;;;;;;;16.20;45.80;101190.97;5098491;28;1085;-46
2023/11/09 05:53:47;;;;;;;;;;;;;;;16.19;46.48;101191.94;5098413;28;2534;-45
2023/11/09 05:56:13;;;;;;;;;;;;;;;17.05;44.46;101204.09;5098546;28;1150;-45
2023/11/09 05:58:38;;;;;;;;;;;;;;;16.49;45.81;101205.97;5097949;28;896;-44
2023/11/09 06:01:04;;;;;;;;;;;;;;;16.23;46.32;101205.84;5098128;28;1447;-43
2023/11/09 06:03:29;;;;;;;;;;;;;;;16.10;46.99;101214.59;5098678;28;1003;-41
2023/11/09 06:05:56;;;;;;;;;;;;;;;16.91;45.74;101221.81;5096780;28;1178;-42
2023/11/09 06:08:21;;;;;;;;;;;;;;;16.63;46.13;101227.16;5097099;28;1115;-44
2023/11/09 06:10:49;;;;;;;;;;;;;;;16.32;46.56;101229.16;5096983;28;1085;-45
2023/11/09 06:13:15;;;;;;;;;;;;;;;16.15;46.99;101243.50;5097716;28;1109;-45
2023/11/09 06:15:41;;;;;;;;;;;;;;;15.99;47.52;101238.31;5091867;28;1987;-44
2023/11/09 06:18:09;;;;;;;;;;;;;;;16.96;45.96;101248.94;5090487;28;1074;-43
2023/11/09 06:20:36;;;;;;;;;;;;;;;16.64;46.41;101241.28;5097077;28;1018;-41
2023/11/09 06:23:02;;;;;;;;;;;;;;;16.32;47.04;101249.53;5078747;28;899;-51
2023/11/09 06:25:27;;;;;;;;;;;;;;;16.17;47.89;101249.56;5077340;28;2347;-51
2023/11/09 06:27:53;;;;;;;;;;;;;;;16.84;46.42;101253.28;5097891;28;1022;-48
2023/11/09 06:30:20;;;;;;;;;;;;;;;16.68;46.30;101252.56;5083931;28;1082;-46
2023/11/09 06:32:45;;;;;;;;;;;;;;;16.32;47.46;101249.53;5097170;28;1209;-48
2023/11/09 06:35:13;;;;;;;;;;;;;;;16.16;47.61;101258.50;5072849;28;1896;-47
2023/11/09 06:37:45;;;;;;;;;;;;;;;16.80;46.61;101257.06;5067586;28;1382;-44
2023/11/09 06:40:16;;;;;;;;;;;;;;;16.69;46.90;101262.22;5071912;28;1126;-45
2023/11/09 06:42:42;;;;;;;;;;;;;;;16.35;47.60;101262.63;5082713;28;1150;-46
2023/11/09 06:45:09;;;;;;;;;;;;;;;16.17;48.08;101262.84;5095874;28;1034;-45
2023/11/09 06:47:39;;;;;;;;;;;;;;;16.17;47.88;101270.81;5092223;28;1082;-45
2023/11/09 06:50:11;;;;;;;;;;;;;;;17.08;45.92;101257.06;5087736;28;1122;-48
2023/11/09 06:52:40;;;;;;;;;;;;;;;16.53;47.01;101263.25;5093570;28;1051;-47
2023/11/09 06:55:06;;;;;;;;;;;;;;;16.26;48.08;101266.72;5083858;28;2670;-44
2023/11/09 06:57:33;;;;;;;;;;;;;;;16.06;48.16;101274.13;5091164;28;1074;-48
2023/11/09 06:59:59;;;;;;;;;;;;;;;16.03;48.16;101272.50;5087839;28;1125;-44
2023/11/09 07:02:26;;;;;;;;;;;;;;;15.98;48.70;101282.56;5092297;28;1026;-43
2023/11/09 07:04:52;;;;;;;;;;;;;;;17.01;46.53;101281.41;5087907;28;1194;-48
2023/11/09 07:07:18;;;;;;;;;;;;;;;16.48;47.78;101281.28;5069903;28;1145;-45
2023/11/09 07:09:43;;;;;;;;;;;;;;;16.24;47.91;101284.53;5071802;28;1230;-49
2023/11/09 07:12:09;;;;;;;;;;;;;;;16.97;47.01;101298.47;5083339;28;1141;-44
2023/11/09 07:14:36;;;;;;;;;;;;;;;16.72;47.08;101293.91;5079850;28;1918;-46
2023/11/09 07:17:06;;;;;;;;;;;;;;;16.44;47.89;101298.34;5085612;28;1084;-47
2023/11/09 07:19:33;;;;;;;;;;;;;;;16.52;47.91;101299.56;5091262;28;1026;-47
2023/11/09 07:21:59;;;;;;;;;;;;;;;17.09;46.79;101303.97;5058267;28;1062;-42
2023/11/09 07:24:26;;;;;;;;;;;;;;;16.51;47.96;101303.19;5072082;28;2257;-46
2023/11/09 07:26:53;;;;;;;;;;;;;;;16.36;48.32;101302.38;5096191;28;1026;-47
2023/11/09 07:29:19;;;;;;;;;;;;;;;16.32;48.41;101306.16;5085634;28;1059;-46
2023/11/09 07:31:45;;;;;;;;;;;;;;;17.23;46.50;101303.88;5079552;28;1010;-47
2023/11/09 07:34:10;;;;;;;;;;;;;;;16.73;47.39;101314.22;5089074;28;1973;-48
2023/11/09 07:36:36;;;;;;;;;;;;;;;16.45;48.09;101308.88;5089598;28;1168;-48
2023/11/09 07:39:03;;;;;;;;;;;;;;;16.23;48.52;101306.72;5086725;28;1130;-48
2023/11/09 07:41:29;;;;;;;;;;;;;;;16.12;49.15;101316.22;5092375;28;1136;-47
2023/11/09 07:43:55;;;;;;;;;;;;;;;15.97;48.92;101315.31;5086675;28;1067;-44
2023/11/09 07:46:20;;;;;;;;;;;;;;;15.95;49.06;101311.91;5081409;28;1045;-45
2023/11/09 07:48:46;;;;;;;;;;;;;;;16.85;47.74;101310.75;5086838;28;1054;-44
2023/11/09 07:51:13;;;;;;;;;;;;;;;17.08;46.90;101313.72;5095395;28;1125;-46
2023/11/09 07:53:39;;;;;;;;;;;;;;;16.55;48.41;101318.94;5084734;28;2331;-46
2023/11/09 07:56:04;;;;;;;;;;;;;;;16.31;48.91;101325.69;5080163;28;1909;-46
2023/11/09 07:58:30;;;;;;;;;;;;;;;16.21;48.72;101327.22;5088128;28;1149;-44
2023/11/09 08:00:58;;;;;;;;;;;;;;;16.04;49.47;101326.44;5061628;28;1011;-42
2023/11/09 08:03:24;;;;;;;;;;;;;;;17.16;47.27;101326.53;5096350;28;1097;-41
2023/11/09 08:05:49;;;;;;;;;;;;;;;16.74;47.91;101332.72;5095420;28;1132;-43
2023/11/09 08:08:16;;;;;;;;;;;;;;;16.46;48.70;101333.63;5095915;28;1050;-46
2023/11/09 08:10:42;;;;;;;;;;;;;;;16.26;48.73;101328.66;5081972;28;1235;-48
2023/11/09 08:13:10;;;;;;;;;;;;;;;16.12;49.28;101333.94;5087208;28;1201;-47
2023/11/09 08:15:36;;;;;;;;;;;;;;;16.05;49.33;101337.94;5073434;28;1968;-42
2023/11/09 08:18:02;;;;;;;;;;;;;;;16.48;48.66;101331.75;5075792;28;1094;-46
2023/11/09 08:20:29;;;;;;;;;;;;;;;17.01;47.57;101331.91;5075690;28;1305;-44
2023/11/09 08:22:55;;;;;;;;;;;;;;;16.51;48.52;101337.72;5058404;28;1207;-45
2023/11/09 08:25:22;;;;;;;;;;;;;;;16.26;49.07;101349.88;5061327;28;1748;-44
2023/11/09 08:27:48;;;;;;;;;;;;;;;16.13;49.27;101347.09;5057276;28;1285;-41
2023/11/09 08:30:15;;;;;;;;;;;;;;;16.63;48.80;101341.38;5060740;28;1367;-48
2023/11/09 08:32:41;;;;;;;;;;;;;;;17.12;47.16;101348.94;5062708;28;1286;-43
2023/11/09 08:35:10;;;;;;;;;;;;;;;16.65;48.33;101344.78;5066618;28;1968;-45
2023/11/09 08:37:42;;;;;;;;;;;;;;;16.36;48.83;101351.94;5046769;28;1213;-43
2023/11/09 08:40:09;;;;;;;;;;;;;;;16.20;49.49;101354.72;5059462;28;1154;-42
2023/11/09 08:42:38;;;;;;;;;;;;;;;16.69;48.64;101350.78;5065960;28;1269;-48
2023/11/09 08:45:04;;;;;;;;;;;;;;;16.95;47.81;101358.03;5060531;28;1281;-46
2023/11/09 08:47:29;;;;;;;;;;;;;;;16.51;48.59;101358.97;5066299;28;1269;-47
2023/11/09 08:49:55;;;;;;;;;;;;;;;16.33;49.08;101366.25;5063841;28;1198;-44
2023/11/09 08:52:23;;;;;;;;;;;;;;;16.19;49.35;101367.13;5058947;28;1210;-46
2023/11/09 08:54:51;;;;;;;;;;;;;;;16.14;49.30;101362.09;5062097;28;1972;-43
2023/11/09 08:57:18;;;;;;;;;;;;;;;16.03;50.00;101360.09;5061242;28;1226;-46
2023/11/09 08:59:43;;;;;;;;;;;;;;;17.04;47.88;101357.41;5080226;28;1356;-47
2023/11/09 09:02:09;;;;;;;;;;;;;;;16.58;48.85;101353.25;5088501;28;1127;-50
2023/11/09 09:04:35;;;;;;;;;;;;;;;16.31;49.09;101354.03;5085278;28;1050;-48
2023/11/09 09:07:01;;;;;;;;;;;;;;;16.22;49.22;101352.78;5076940;28;1446;-42
2023/11/09 09:09:26;;;;;;;;;;;;;;;16.09;49.55;101358.00;5099323;28;1162;-51
2023/11/09 09:11:52;;;;;;;;;;;;;;;17.05;48.25;101348.47;5086486;28;1234;-43
2023/11/09 09:14:18;;;;;;;;;;;;;;;16.79;48.22;101347.50;5078735;28;1977;-43
2023/11/09 09:16:44;;;;;;;;;;;;;;;16.48;49.02;101351.16;5074976;28;1426;-44
2023/11/09 09:19:09;;;;;;;;;;;;;;;16.27;49.68;101361.34;5098750;28;1093;-45
2023/11/09 09:21:36;;;;;;;;;;;;;;;16.13;49.73;101352.41;5098569;28;1148;-38
2023/11/09 09:24:02;;;;;;;;;;;;;;;16.03;49.68;101352.13;5087399;28;2424;-47
2023/11/09 09:26:30;;;;;;;;;;;;;;;15.98;50.19;101353.34;5093140;28;1224;-46
2023/11/09 09:28:56;;;;;;;;;;;;;;;17.20;47.99;101349.31;5090446;28;1093;-44
2023/11/09 09:31:23;;;;;;;;;;;;;;;16.79;48.47;101350.16;5092543;28;1054;-44
2023/11/09 09:33:56;;;;;;;;;;;;;;;16.48;49.18;101353.81;5097801;28;1973;-40
2023/11/09 09:36:21;;;;;;;;;;;;;;;16.28;49.64;101357.75;5096563;28;877;-43
2023/11/09 09:38:47;;;;;;;;;;;;;;;16.18;49.85;101354.81;5098362;28;1093;-45
2023/11/09 09:41:15;;;;;;;;;;;;;;;16.46;49.68;101357.53;5077122;28;1142;-45
2023/11/09 09:43:42;;;;;;;;;;;;;;;17.04;48.20;101356.53;5047163;28;1356;-41
2023/11/09 09:46:12;;;;;;;;;;;;;;;16.57;49.37;101352.41;5077540;28;1510;-46
2023/11/09 09:48:38;;;;;;;;;;;;;;;16.32;49.95;101353.94;5062152;28;1083;-41
2023/11/09 09:51:05;;;;;;;;;;;;;;;16.23;49.58;101354.53;5075324;28;1434;-45
2023/11/09 09:53:31;;;;;;;;;;;;;;;16.94;48.98;101351.84;5073026;28;1355;-45
2023/11/09 09:55:57;;;;;;;;;;;;;;;16.92;48.44;101348.41;5045333;28;1894;-42
2023/11/09 09:58:22;;;;;;;;;;;;;;;16.53;49.18;101351.72;5066790;28;1308;-43
2023/11/09 10:00:49;;;;;;;;;;;;;;;16.33;49.61;101350.31;5085734;28;1474;-42
2023/11/09 10:03:16;;;;;;;;;;;;;;;16.22;50.17;101355.44;5067588;28;1008;-43
2023/11/09 10:05:41;;;;;;;;;;;;;;;16.08;49.98;101351.84;5083543;28;1178;-43
2023/11/09 10:08:13;;;;;;;;;;;;;;;16.95;48.88;101353.53;5057140;28;1399;-45
2023/11/09 10:10:44;;;;;;;;;;;;;;;16.87;48.71;101350.53;5085156;28;1175;-43
2023/11/09 10:13:10;;;;;;;;;;;;;;;16.48;49.52;101345.84;5077730;28;1014;-46
2023/11/09 10:15:36;;;;;;;;;;;;;;;16.27;49.71;101337.44;5085646;28;1974;-45
2023/11/09 10:18:02;;;;;;;;;;;;;;;16.20;49.71;101342.28;5095452;28;1101;-46
2023/11/09 10:20:27;;;;;;;;;;;;;;;16.07;50.09;101343.97;5071954;28;1358;-45
2023/11/09 10:22:53;;;;;;;;;;;;;;;16.47;49.98;101345.94;5070295;28;1399;-42
2023/11/09 10:25:19;;;;;;;;;;;;;;;17.29;47.96;101349.66;5090913;28;2463;-42
2023/11/09 10:27:47;;;;;;;;;;;;;;;16.70;49.32;101349.81;5095182;28;1185;-47
2023/11/09 10:30:16;;;;;;;;;;;;;;;16.36;50.00;101350.16;5073837;28;1161;-47
2023/11/09 10:32:43;;;;;;;;;;;;;;;16.27;50.15;101356.03;5079927;28;1007;-44
2023/11/09 10:35:11;;;;;;;;;;;;;;;16.16;50.24;101348.72;5089810;28;1910;-44
2023/11/09 10:37:37;;;;;;;;;;;;;;;16.89;49.02;101353.94;5083686;28;1038;-46
2023/11/09 10:40:06;;;;;;;;;;;;;;;16.95;48.66;101353.53;5079155;28;1073;-45
2023/11/09 10:42:31;;;;;;;;;;;;;;;16.50;49.48;101351.06;5093620;28;998;-46
2023/11/09 10:44:57;;;;;;;;;;;;;;;16.31;50.03;101354.91;5087157;28;1008;-43
2023/11/09 10:47:24;;;;;;;;;;;;;;;16.16;49.89;101346.91;5074943;28;1054;-40
2023/11/09 10:49:53;;;;;;;;;;;;;;;16.09;50.55;101347.41;5068655;28;1304;-40
2023/11/09 10:52:21;;;;;;;;;;;;;;;17.13;48.44;101345.38;5068181;28;1082;-41
2023/11/09 10:54:51;;;;;;;;;;;;;;;16.67;49.58;101350.00;5066436;28;2079;-44
2023/11/09 10:57:18;;;;;;;;;;;;;;;16.44;50.02;101351.47;5051472;28;1162;-44
2023/11/09 10:59:48;;;;;;;;;;;;;;;16.25;50.16;101349.94;5062296;28;1095;-41
2023/11/09 11:02:18;;;;;;;;;;;;;;;16.13;50.03;101351.59;5056908;28;1023;-43
2023/11/09 11:04:45;;;;;;;;;;;;;;;16.91;49.35;101346.72;5089256;28;1154;-41
2023/11/09 11:07:12;;;;;;;;;;;;;;;16.85;48.93;101357.75;5092602;28;1085;-49
2023/11/09 11:09:38;;;;;;;;;;;;;;;16.48;49.58;101345.84;5110375;28;1148;-43
2023/11/09 11:12:06;;;;;;;;;;;;;;;16.31;50.19;101357.56;5088208;28;1202;-39
2023/11/09 11:14:32;;;;;;;;;;;;;;;16.15;50.41;101353.19;5064528;28;1913;-41
2023/11/09 11:17:11;;;;;;;;;;;;;;;16.42;50.32;101362.19;5077704;28;1006;-43
2023/11/09 11:19:36;;;;;;;;;;;;;;;16.98;48.96;101358.66;5071451;28;1064;-41
2023/11/09 11:22:04;;;;;;;;;;;;;;;16.56;49.53;101347.19;5095724;28;1034;-39
2023/11/09 11:24:29;;;;;;;;;;;;;;;16.28;50.07;101355.94;5092700;28;2415;-41
2023/11/09 11:27:10;;;;;;;;;;;;;;;16.19;50.24;101361.81;5095935;28;1094;-42
2023/11/09 11:29:37;;;;;;;;;;;;;;;16.25;50.73;101361.44;5089716;28;1087;-45
2023/11/09 11:32:04;;;;;;;;;;;;;;;17.07;48.71;101361.66;5089872;28;1102;-39
2023/11/09 11:34:46;;;;;;;;;;;;;;;16.62;49.55;101366.25;5088896;28;1910;-42
2023/11/09 11:37:13;;;;;;;;;;;;;;;16.32;50.26;101364.56;5088814;28;1016;-45
2023/11/09 11:39:40;;;;;;;;;;;;;;;16.56;50.04;101376.41;5093908;28;1113;-41
2023/11/09 11:42:27;;;;;;;;;;;;;;;17.06;48.88;101370.59;5075930;28;1007;-42
2023/11/09 11:44:54;;;;;;;;;;;;;;;16.60;50.00;101373.44;5066823;28;1134;-43
2023/11/09 11:47:23;;;;;;;;;;;;;;;16.36;50.48;101373.19;5071583;28;1127;-41
2023/11/09 11:49:53;;;;;;;;;;;;;;;16.23;50.40;101381.06;5080972;28;1103;-41
2023/11/09 11:52:18;;;;;;;;;;;;;;;16.42;50.73;101372.81;5095831;28;1050;-42
2023/11/09 11:54:44;;;;;;;;;;;;;;;17.23;48.40;101366.88;5085306;28;1914;-42
2023/11/09 11:57:11;;;;;;;;;;;;;;;16.68;49.54;101367.66;5089424;28;1105;-42
2023/11/09 11:59:38;;;;;;;;;;;;;;;16.44;50.03;101368.25;5087114;28;1059;-41
2023/11/09 12:02:05;;;;;;;;;;;;;;;16.28;50.21;101363.88;5071659;28;1165;-41
2023/11/09 12:04:31;;;;;;;;;;;;;;;16.18;50.66;101378.69;5065013;28;1351;-41
2023/11/09 12:06:56;;;;;;;;;;;;;;;16.08;50.49;101373.06;5061160;28;1443;-43
2023/11/09 12:09:22;;;;;;;;;;;;;;;16.02;50.22;101376.09;5076068;28;1269;-44
2023/11/09 12:11:49;;;;;;;;;;;;;;;16.33;50.66;101378.69;5095487;28;1135;-44
2023/11/09 12:14:16;;;;;;;;;;;;;;;16.86;49.42;101381.59;5080833;28;1980;-45
2023/11/09 12:16:41;;;;;;;;;;;;;;;16.43;50.29;101376.31;5087347;28;1308;-45
2023/11/09 12:19:11;;;;;;;;;;;;;;;16.24;50.77;101380.09;5089000;28;1378;-43
2023/11/09 12:21:36;;;;;;;;;;;;;;;16.10;50.90;101379.16;5093432;28;1320;-42
2023/11/09 12:24:03;;;;;;;;;;;;;;;16.90;50.07;101376.91;5096272;28;2189;-44
2023/11/09 12:26:32;;;;;;;;;;;;;;;16.82;49.36;101377.41;5099182;28;1186;-43
2023/11/09 12:28:58;;;;;;;;;;;;;;;16.49;50.43;101371.47;5097678;28;1236;-45
2023/11/09 12:31:27;;;;;;;;;;;;;;;16.26;50.68;101371.13;5084560;28;1347;-41
2023/11/09 12:34:06;;;;;;;;;;;;;;;16.18;50.46;101373.41;5090628;28;1300;-41
2023/11/09 12:36:33;;;;;;;;;;;;;;;16.03;50.79;101375.19;5085769;28;1315;-43
2023/11/09 12:39:00;;;;;;;;;;;;;;;15.95;50.77;101377.41;5099833;28;1006;-45
2023/11/09 12:41:30;;;;;;;;;;;;;;;17.10;49.34;101374.81;5097107;28;1093;-41
2023/11/09 12:43:56;;;;;;;;;;;;;;;16.69;49.91;101372.03;5086341;28;1357;-44
2023/11/09 12:46:22;;;;;;;;;;;;;;;16.40;50.48;101374.69;5118504;27;1331;-47
2023/11/09 12:48:48;;;;;;;;;;;;;;;16.41;51.05;101365.78;5085516;28;1321;-46
2023/11/09 12:51:17;;;;;;;;;;;;;;;17.13;49.23;101370.13;5093104;28;1379;-43
2023/11/09 12:53:44;;;;;;;;;;;;;;;16.60;50.10;101373.44;5089056;28;1831;-42